Terminal Aerodrome Forecast
Issued by NWS Tampa Bay Area, FL

Home | Current Version | Previous Version | Text Only | Print | Product List | Glossary Off
Versions: 1 2 3 4 5 6 7 8 9 10 11 12 13 14 15 16 17 18 19 20 21 22 23 24 25 26 27 28

909
FTUS42 KTBW 190526
TAFTPA
TAF
KTPA 190526Z 1906/2006 VRB04KT P6SM FEW025 SCT250
     FM191500 24004KT P6SM FEW030 SCT250
     FM192100 30007KT P6SM VCTS SCT040CB BKN250
     FM200100 VRB04KT P6SM FEW040 SCT250=

USA.gov is the U.S. government's official web portal to all federal, state and local government web resources and services.